createdAt,value
2019-02-18T00:00:53.153Z,6.09
2019-02-18T00:03:21.195Z,5.96
2019-02-18T00:05:48.607Z,5.92
2019-02-18T00:08:16.117Z,5.89
2019-02-18T00:10:43.514Z,5.91
2019-02-18T00:13:11.072Z,6.03
2019-02-18T00:15:38.690Z,6.10
2019-02-18T00:18:06.115Z,5.99
2019-02-18T00:20:33.794Z,6.01
2019-02-18T00:23:01.276Z,6.05
2019-02-18T00:25:28.732Z,6.04
2019-02-18T00:27:56.196Z,6.01
2019-02-18T00:30:23.592Z,5.86
2019-02-18T00:32:51.101Z,5.84
2019-02-18T00:35:18.520Z,5.79
2019-02-18T00:37:45.938Z,5.76
2019-02-18T00:40:13.344Z,5.77
2019-02-18T00:42:40.735Z,5.77
2019-02-18T00:45:10.647Z,5.66
2019-02-18T00:47:38.103Z,5.68
2019-02-18T00:50:05.554Z,5.74
2019-02-18T00:52:33.727Z,5.73
2019-02-18T00:55:01.283Z,5.71
2019-02-18T00:57:28.751Z,5.67
2019-02-18T00:59:56.154Z,5.70
2019-02-18T01:02:23.657Z,5.68
2019-02-18T01:04:52.350Z,5.64
2019-02-18T01:07:19.784Z,5.55
2019-02-18T01:09:47.200Z,5.51
2019-02-18T01:12:14.623Z,5.45
2019-02-18T01:14:42.077Z,5.37
2019-02-18T01:17:09.543Z,5.42
2019-02-18T01:19:36.948Z,5.42
2019-02-18T01:22:04.351Z,5.43
2019-02-18T01:24:31.789Z,5.41
2019-02-18T01:26:59.176Z,5.41
2019-02-18T01:29:26.574Z,5.42
2019-02-18T01:31:54.167Z,5.34
2019-02-18T01:34:21.558Z,5.38
2019-02-18T01:36:48.971Z,5.36
2019-02-18T01:39:16.416Z,5.30
2019-02-18T01:41:43.816Z,5.23
2019-02-18T01:44:11.247Z,5.16
2019-02-18T01:46:38.808Z,5.15
2019-02-18T01:49:06.872Z,5.10
2019-02-18T01:51:34.437Z,4.98
2019-02-18T01:54:01.883Z,4.96
2019-02-18T01:56:29.297Z,5.01
2019-02-18T01:58:56.779Z,4.98
2019-02-18T02:01:24.181Z,4.95
2019-02-18T02:03:51.596Z,4.86
2019-02-18T02:06:19.026Z,4.86
2019-02-18T02:08:46.499Z,4.82
2019-02-18T02:11:13.890Z,4.93
2019-02-18T02:13:41.298Z,5.01
2019-02-18T02:16:08.703Z,5.04
2019-02-18T02:18:36.125Z,5.01
2019-02-18T02:21:04.442Z,4.91
2019-02-18T02:23:31.855Z,4.94
2019-02-18T02:25:59.245Z,5.00
2019-02-18T02:28:26.755Z,5.04
2019-02-18T02:30:54.146Z,5.09
2019-02-18T02:33:21.571Z,5.06
2019-02-18T02:35:49.005Z,4.98
2019-02-18T02:38:16.414Z,5.01
2019-02-18T02:40:43.813Z,5.01
2019-02-18T02:43:11.212Z,5.03
2019-02-18T02:45:38.739Z,4.91
2019-02-18T02:48:06.126Z,4.90
2019-02-18T02:50:33.546Z,4.95
2019-02-18T02:53:00.935Z,4.92
2019-02-18T02:55:28.527Z,4.93
2019-02-18T02:57:56.091Z,4.89
2019-02-18T03:00:23.492Z,4.75
2019-02-18T03:02:50.922Z,4.67
2019-02-18T03:05:18.323Z,4.69
2019-02-18T03:07:45.743Z,4.70
2019-02-18T03:10:13.144Z,4.69
2019-02-18T03:12:40.534Z,4.61
2019-02-18T03:15:09.297Z,4.54
2019-02-18T03:17:36.727Z,4.53
2019-02-18T03:20:04.132Z,4.59
2019-02-18T03:22:31.572Z,4.69
2019-02-18T03:25:19.545Z,4.72
2019-02-18T03:27:47.050Z,4.66
2019-02-18T03:33:16.873Z,4.90
2019-02-18T03:35:44.301Z,4.85
2019-02-18T03:38:11.683Z,4.82
2019-02-18T03:40:39.091Z,4.73
2019-02-18T03:43:06.544Z,4.70
2019-02-18T03:45:34.029Z,4.57
2019-02-18T03:48:01.458Z,4.52
2019-02-18T03:50:28.870Z,4.52
2019-02-18T03:52:56.308Z,4.46
2019-02-18T03:55:23.710Z,4.48
2019-02-18T03:57:51.147Z,4.64
2019-02-18T04:00:18.666Z,4.63
2019-02-18T04:02:46.070Z,4.60
2019-02-18T04:05:13.686Z,4.52
2019-02-18T04:07:41.393Z,4.42
2019-02-18T04:10:09.538Z,4.38
2019-02-18T04:12:37.253Z,4.36
2019-02-18T04:15:12.072Z,4.38
2019-02-18T04:17:39.483Z,4.42
2019-02-18T04:20:06.903Z,4.39
2019-02-18T04:22:34.309Z,4.46
2019-02-18T04:25:01.745Z,4.48
2019-02-18T04:27:29.176Z,4.47
2019-02-18T04:29:56.568Z,4.46
2019-02-18T04:32:24.001Z,4.41
2019-02-18T04:34:51.404Z,4.41
2019-02-18T04:37:18.954Z,4.42
2019-02-18T04:39:46.388Z,4.49
2019-02-18T04:42:13.818Z,4.51
2019-02-18T04:44:41.203Z,4.49
2019-02-18T04:47:08.614Z,4.43
2019-02-18T04:49:36.017Z,4.37
2019-02-18T04:52:03.462Z,4.27
2019-02-18T04:54:30.879Z,4.20
2019-02-18T04:56:58.281Z,4.09
2019-02-18T04:59:25.725Z,4.07
2019-02-18T05:01:53.120Z,4.19
2019-02-18T05:04:20.629Z,4.23
2019-02-18T05:06:48.020Z,4.22
2019-02-18T05:09:15.419Z,4.28
2019-02-18T05:11:42.820Z,4.23
2019-02-18T05:14:10.231Z,4.24
2019-02-18T05:16:37.628Z,4.21
2019-02-18T05:19:05.061Z,4.23
2019-02-18T05:21:32.601Z,4.19
2019-02-18T05:24:00.082Z,4.09
2019-02-18T05:26:27.503Z,4.05
2019-02-18T05:28:54.933Z,4.07
2019-02-18T05:31:22.318Z,4.10
2019-02-18T05:33:49.793Z,4.00
2019-02-18T05:36:17.211Z,3.99
2019-02-18T05:38:44.625Z,3.99
2019-02-18T05:41:12.123Z,4.00
2019-02-18T05:43:39.540Z,4.04
2019-02-18T05:46:08.708Z,4.05
2019-02-18T05:48:34.387Z,4.11
2019-02-18T05:51:02.395Z,4.08
2019-02-18T05:53:30.086Z,3.97
2019-02-18T05:55:57.648Z,3.94
2019-02-18T05:58:25.071Z,3.94
2019-02-18T06:00:52.535Z,3.89
2019-02-18T06:03:20.010Z,3.80
2019-02-18T06:05:47.669Z,3.78
2019-02-18T06:08:15.070Z,3.80
2019-02-18T06:10:42.631Z,3.85
2019-02-18T06:13:10.048Z,3.89
2019-02-18T06:15:37.439Z,3.88
2019-02-18T06:18:04.857Z,3.97
2019-02-18T06:20:32.250Z,3.94
2019-02-18T06:22:59.722Z,3.94
2019-02-18T06:25:27.116Z,3.90
2019-02-18T06:27:54.549Z,3.89
2019-02-18T06:30:21.954Z,3.91
2019-02-18T06:32:49.385Z,3.85
2019-02-18T06:35:16.797Z,3.75
2019-02-18T06:37:44.217Z,3.71
2019-02-18T06:40:11.688Z,3.73
2019-02-18T06:42:39.099Z,3.80
2019-02-18T06:45:06.824Z,3.89
2019-02-18T06:47:34.321Z,3.86
2019-02-18T06:50:01.758Z,3.86
2019-02-18T06:52:29.230Z,3.92
2019-02-18T06:54:56.615Z,4.41
2019-02-18T06:57:40.064Z,5.04
2019-02-18T07:00:07.521Z,5.67
2019-02-18T07:02:35.284Z,6.00
2019-02-18T07:05:19.725Z,6.18
2019-02-18T07:07:47.157Z,6.43
2019-02-18T07:10:14.644Z,6.69
2019-02-18T07:12:42.266Z,6.80
2019-02-18T07:15:09.669Z,6.77
2019-02-18T07:17:37.236Z,7.18
2019-02-18T07:22:42.043Z,7.84
2019-02-18T07:25:09.447Z,8.08
2019-02-18T07:27:37.184Z,8.57
2019-02-18T07:30:04.836Z,9.03
2019-02-18T07:32:32.235Z,9.23
2019-02-18T07:34:59.645Z,8.88
2019-02-18T07:37:28.104Z,8.50
2019-02-18T07:40:01.615Z,8.31
2019-02-18T07:42:22.989Z,8.93
2019-02-18T07:44:50.402Z,9.72
2019-02-18T07:47:17.870Z,10.29
2019-02-18T07:49:45.339Z,10.50
2019-02-18T07:52:12.901Z,10.82
2019-02-18T07:54:40.477Z,11.41
2019-02-18T07:57:07.920Z,11.88
2019-02-18T07:59:35.349Z,12.02
2019-02-18T08:02:02.786Z,12.17
2019-02-18T08:04:30.199Z,12.41
2019-02-18T08:06:57.789Z,12.68
2019-02-18T08:09:25.214Z,12.58
2019-02-18T08:11:52.642Z,12.25
2019-02-18T08:14:20.211Z,12.00
2019-02-18T08:16:47.698Z,12.30
2019-02-18T08:19:15.750Z,12.65
2019-02-18T08:21:42.554Z,12.97
2019-02-18T08:24:09.957Z,13.37
2019-02-18T08:26:37.592Z,13.69
2019-02-18T08:29:04.987Z,14.09
2019-02-18T08:31:32.407Z,14.22
2019-02-18T08:33:59.823Z,14.37
2019-02-18T08:36:27.441Z,13.58
2019-02-18T08:38:54.998Z,13.21
2019-02-18T08:41:22.411Z,13.04
2019-02-18T08:43:49.896Z,12.80
2019-02-18T08:46:19.100Z,12.66
2019-02-18T08:48:46.505Z,12.43
2019-02-18T08:51:13.977Z,12.26
2019-02-18T08:53:41.414Z,11.84
2019-02-18T08:56:09.161Z,11.85
2019-02-18T08:58:36.598Z,11.58
2019-02-18T09:01:04.247Z,12.42
2019-02-18T09:03:31.648Z,13.15
2019-02-18T09:05:59.089Z,13.72
2019-02-18T09:08:26.118Z,14.57
2019-02-18T09:10:54.183Z,14.97
2019-02-18T09:13:21.611Z,15.46
2019-02-18T09:15:52.966Z,16.02
2019-02-18T09:18:16.250Z,16.37
2019-02-18T09:20:43.671Z,16.69
2019-02-18T09:23:13.526Z,16.78
2019-02-18T09:25:43.435Z,16.96
2019-02-18T09:28:08.586Z,17.29
2019-02-18T09:30:35.616Z,17.33
2019-02-18T09:33:03.015Z,17.45
2019-02-18T09:35:30.453Z,17.43
2019-02-18T09:37:57.876Z,17.37
2019-02-18T09:40:25.555Z,17.61
2019-02-18T09:42:53.081Z,18.07
2019-02-18T09:45:20.573Z,18.47
2019-02-18T09:47:47.994Z,18.62
2019-02-18T09:50:15.462Z,18.56
2019-02-18T09:52:42.881Z,18.48
2019-02-18T09:55:10.338Z,18.59
2019-02-18T09:57:37.752Z,18.74
2019-02-18T10:00:06.694Z,18.77
2019-02-18T10:02:34.124Z,18.45
2019-02-18T10:05:01.829Z,18.56
2019-02-18T10:07:29.900Z,18.41
2019-02-18T10:09:57.619Z,18.96
2019-02-18T10:12:25.143Z,19.36
2019-02-18T10:14:52.555Z,19.77
2019-02-18T10:17:20.047Z,19.70
2019-02-18T10:19:47.882Z,19.73
2019-02-18T10:22:15.303Z,19.90
2019-02-18T10:24:50.721Z,20.10
2019-02-18T10:27:10.662Z,20.52
2019-02-18T10:29:38.268Z,20.62
2019-02-18T10:32:05.308Z,20.67
2019-02-18T10:34:32.291Z,20.59
2019-02-18T10:36:59.322Z,20.65
2019-02-18T10:39:26.294Z,20.72
2019-02-18T10:41:53.251Z,20.62
2019-02-18T10:44:20.340Z,20.63
2019-02-18T10:46:47.274Z,20.48
2019-02-18T10:49:19.803Z,20.74
2019-02-18T10:51:42.184Z,20.70
2019-02-18T10:54:09.608Z,20.74
2019-02-18T10:56:37.085Z,20.31
2019-02-18T10:59:04.619Z,20.31
2019-02-18T11:01:32.089Z,20.47
2019-02-18T11:03:59.619Z,20.62
2019-02-18T11:06:27.249Z,20.62
2019-02-18T11:08:55.386Z,20.75
2019-02-18T11:11:22.799Z,20.98
2019-02-18T11:13:50.242Z,21.07
2019-02-18T11:16:17.675Z,21.31
2019-02-18T11:18:45.166Z,21.68
2019-02-18T11:21:12.138Z,22.04
2019-02-18T11:23:39.081Z,21.94
2019-02-18T11:26:06.014Z,21.88
2019-02-18T11:28:33.096Z,22.32
2019-02-18T11:31:00.173Z,22.55
2019-02-18T11:33:27.125Z,22.70
2019-02-18T11:35:54.606Z,22.58
2019-02-18T11:38:22.140Z,22.64
2019-02-18T11:40:49.577Z,22.99
2019-02-18T11:43:17.074Z,23.02
2019-02-18T11:45:44.049Z,23.24
2019-02-18T11:48:11.658Z,23.79
2019-02-18T11:50:39.069Z,24.15
2019-02-18T11:53:06.543Z,24.29
2019-02-18T11:55:33.496Z,24.11
2019-02-18T11:58:01.727Z,23.41
2019-02-18T12:00:29.141Z,23.24
2019-02-18T12:03:03.132Z,22.80
2019-02-18T12:05:25.010Z,22.63
2019-02-18T12:07:52.468Z,22.98
2019-02-18T12:10:19.934Z,23.39
2019-02-18T12:12:47.358Z,24.13
2019-02-18T12:15:14.837Z,23.70
2019-02-18T12:17:42.682Z,23.47
2019-02-18T12:20:10.909Z,23.99
2019-02-18T12:22:38.439Z,23.55
2019-02-18T12:25:05.408Z,23.13
2019-02-18T12:27:32.385Z,23.27
2019-02-18T12:29:59.458Z,23.78
2019-02-18T12:32:26.961Z,24.74
2019-02-18T12:34:54.492Z,24.43
2019-02-18T12:37:22.624Z,24.54
2019-02-18T12:39:50.243Z,25.09
2019-02-18T12:42:17.778Z,25.46
2019-02-18T12:44:45.243Z,26.09
2019-02-18T12:47:12.821Z,26.01
2019-02-18T12:49:40.330Z,25.21
2019-02-18T12:52:07.735Z,25.45
2019-02-18T12:54:35.169Z,25.83
2019-02-18T12:57:02.593Z,24.61
2019-02-18T12:59:30.683Z,23.59
2019-02-18T13:01:57.746Z,22.85
2019-02-18T13:04:25.684Z,22.55
2019-02-18T13:06:53.281Z,23.34
2019-02-18T13:09:21.353Z,24.43
2019-02-18T13:11:58.495Z,24.49
2019-02-18T13:14:16.267Z,24.33
2019-02-18T13:16:43.714Z,23.28
2019-02-18T13:19:11.164Z,24.22
2019-02-18T13:21:38.634Z,24.73
2019-02-18T13:24:06.161Z,24.92
2019-02-18T13:26:35.177Z,25.40
2019-02-18T13:29:02.737Z,26.27
2019-02-18T13:31:30.166Z,27.10
2019-02-18T13:33:57.759Z,26.97
2019-02-18T13:36:25.183Z,26.24
2019-02-18T13:38:52.671Z,26.02
2019-02-18T13:41:20.123Z,28.18
2019-02-18T13:43:47.101Z,29.44
2019-02-18T13:46:14.225Z,27.37
2019-02-18T13:48:41.254Z,26.48
2019-02-18T13:51:08.259Z,28.28
2019-02-18T13:53:35.367Z,29.91
2019-02-18T13:56:02.330Z,29.61
2019-02-18T13:58:29.295Z,29.08
2019-02-18T14:00:56.266Z,27.54
2019-02-18T14:03:23.263Z,27.19
2019-02-18T14:05:50.227Z,29.20
2019-02-18T14:08:17.174Z,30.55
2019-02-18T14:10:44.142Z,31.42
2019-02-18T14:13:11.519Z,31.19
2019-02-18T14:15:38.491Z,30.11
2019-02-18T14:18:05.564Z,29.24
2019-02-18T14:20:32.536Z,29.49
2019-02-18T14:22:59.507Z,30.08
2019-02-18T14:25:26.478Z,28.47
2019-02-18T14:27:53.869Z,28.42
2019-02-18T14:30:21.292Z,30.80
2019-02-18T14:32:48.772Z,31.47
2019-02-18T14:35:16.228Z,31.92
2019-02-18T14:37:43.181Z,32.60
2019-02-18T14:40:10.157Z,32.88
2019-02-18T14:42:37.149Z,32.25
2019-02-18T14:45:04.252Z,32.15
2019-02-18T14:47:31.678Z,33.77
2019-02-18T14:49:59.164Z,34.78
2019-02-18T14:52:26.107Z,35.32
2019-02-18T14:54:53.520Z,35.65
2019-02-18T14:57:20.930Z,34.82
2019-02-18T14:59:48.547Z,35.98
2019-02-18T15:02:16.089Z,36.31
2019-02-18T15:04:43.523Z,32.91
2019-02-18T15:07:11.816Z,31.44
2019-02-18T15:09:39.229Z,32.66
2019-02-18T15:12:07.091Z,33.74
2019-02-18T15:14:34.084Z,34.45
2019-02-18T15:17:01.542Z,33.13
2019-02-18T15:19:28.492Z,33.52
2019-02-18T15:21:55.915Z,33.40
2019-02-18T15:24:23.711Z,33.53
2019-02-18T15:26:51.177Z,33.70
2019-02-18T15:29:18.591Z,33.15
2019-02-18T15:31:46.123Z,33.61
2019-02-18T15:34:13.572Z,32.38
2019-02-18T15:36:40.975Z,31.22
2019-02-18T15:39:08.664Z,31.58
2019-02-18T15:41:36.153Z,31.36
2019-02-18T15:44:03.574Z,30.61
2019-02-18T15:46:31.031Z,30.49
2019-02-18T15:48:58.480Z,30.51
2019-02-18T15:51:26.008Z,30.18
2019-02-18T15:53:53.596Z,29.85
2019-02-18T15:56:21.068Z,31.25
2019-02-18T15:58:48.511Z,31.23
2019-02-18T16:01:15.689Z,30.81
2019-02-18T16:03:42.716Z,30.60
2019-02-18T16:06:09.807Z,29.46
2019-02-18T16:08:37.261Z,28.85
2019-02-18T16:11:04.781Z,29.05
2019-02-18T16:13:32.243Z,28.93
2019-02-18T16:15:59.296Z,28.92
2019-02-18T16:18:26.397Z,28.41
2019-02-18T16:20:53.490Z,27.94
2019-02-18T16:23:20.670Z,27.53
2019-02-18T16:25:47.656Z,27.77
2019-02-18T16:28:14.607Z,27.50
2019-02-18T16:30:41.548Z,26.34
2019-02-18T16:33:09.054Z,25.51
2019-02-18T16:35:36.475Z,24.03
2019-02-18T16:38:04.057Z,20.40
2019-02-18T16:40:31.500Z,18.19
2019-02-18T16:42:59.621Z,16.80
2019-02-18T16:45:26.607Z,16.20
2019-02-18T16:47:54.206Z,15.66
2019-02-18T16:50:21.654Z,15.32
2019-02-18T16:52:49.316Z,15.13
2019-02-18T16:55:16.730Z,14.97
2019-02-18T16:57:44.280Z,14.96
2019-02-18T17:00:11.691Z,14.90
2019-02-18T17:02:39.112Z,14.87
2019-02-18T17:05:06.598Z,14.82
2019-02-18T17:07:34.009Z,14.79
2019-02-18T17:10:01.521Z,14.67
2019-02-18T17:12:29.143Z,14.55
2019-02-18T17:14:56.572Z,14.42
2019-02-18T17:17:24.011Z,14.28
2019-02-18T17:19:51.409Z,14.11
2019-02-18T17:22:18.815Z,14.02
2019-02-18T17:24:46.239Z,14.04
2019-02-18T17:27:13.728Z,14.05
2019-02-18T17:29:41.382Z,13.94
2019-02-18T17:32:08.867Z,13.80
2019-02-18T17:34:36.371Z,13.61
2019-02-18T17:37:03.882Z,13.49
2019-02-18T17:39:31.613Z,13.40
2019-02-18T17:41:59.029Z,13.35
2019-02-18T17:44:26.499Z,13.08
2019-02-18T17:46:53.987Z,12.89
2019-02-18T17:49:21.401Z,12.76
2019-02-18T17:51:48.799Z,12.65
2019-02-18T17:54:16.243Z,12.57
2019-02-18T17:56:43.707Z,12.58
2019-02-18T17:59:11.096Z,12.60
2019-02-18T18:01:38.505Z,12.42
2019-02-18T18:04:05.981Z,12.37
2019-02-18T18:06:33.372Z,12.27
2019-02-18T18:09:00.796Z,12.22
2019-02-18T18:11:28.399Z,12.19
2019-02-18T18:13:56.927Z,12.19
2019-02-18T18:16:24.328Z,12.17
2019-02-18T18:18:51.729Z,12.04
2019-02-18T18:21:19.839Z,11.97
2019-02-18T18:23:47.440Z,12.01
2019-02-18T18:26:14.872Z,12.02
2019-02-18T18:28:42.369Z,12.02
2019-02-18T18:31:09.864Z,11.87
2019-02-18T18:33:37.297Z,11.82
2019-02-18T18:36:04.714Z,11.83
2019-02-18T18:38:32.251Z,11.82
2019-02-18T18:40:59.810Z,11.89
2019-02-18T18:43:33.548Z,11.92
2019-02-18T18:45:54.703Z,11.90
2019-02-18T18:48:22.103Z,11.72
2019-02-18T18:50:49.554Z,11.64
2019-02-18T18:53:17.028Z,11.64
2019-02-18T18:55:44.451Z,11.66
2019-02-18T18:58:11.848Z,11.75
2019-02-18T19:00:39.257Z,11.77
2019-02-18T19:03:06.702Z,11.70
2019-02-18T19:05:34.136Z,11.69
2019-02-18T19:08:01.725Z,11.64
2019-02-18T19:10:30.443Z,11.57
2019-02-18T19:12:57.909Z,11.62
2019-02-18T19:15:25.325Z,11.54
2019-02-18T19:17:52.894Z,11.40
2019-02-18T19:20:20.453Z,11.42
2019-02-18T19:22:47.881Z,11.41
2019-02-18T19:25:15.299Z,11.37
2019-02-18T19:27:42.756Z,11.40
2019-02-18T19:30:17.892Z,11.38
2019-02-18T19:32:45.317Z,11.34
2019-02-18T19:35:12.788Z,11.19
2019-02-18T19:37:40.263Z,11.14
2019-02-18T19:40:10.287Z,11.17
2019-02-18T19:42:37.721Z,11.11
2019-02-18T19:45:05.163Z,11.08
2019-02-18T19:47:32.567Z,11.04
2019-02-18T19:50:00.336Z,11.09
2019-02-18T19:52:27.682Z,11.06
2019-02-18T19:54:55.091Z,11.02
2019-02-18T19:57:22.535Z,10.99
2019-02-18T19:59:50.045Z,11.08
2019-02-18T20:02:17.466Z,11.04
2019-02-18T20:04:44.909Z,10.95
2019-02-18T20:07:12.352Z,10.91
2019-02-18T20:09:39.846Z,10.97
2019-02-18T20:12:07.267Z,11.03
2019-02-18T20:14:34.765Z,10.97
2019-02-18T20:17:02.199Z,10.89
2019-02-18T20:19:29.614Z,10.89
2019-02-18T20:21:57.059Z,10.87
2019-02-18T20:24:24.475Z,10.78
2019-02-18T20:26:51.921Z,10.70
2019-02-18T20:29:19.330Z,10.56
2019-02-18T20:31:46.791Z,10.51
2019-02-18T20:34:14.179Z,10.48
2019-02-18T20:36:41.858Z,10.53
2019-02-18T20:39:09.297Z,10.46
2019-02-18T20:41:36.754Z,10.29
2019-02-18T20:44:07.453Z,10.18
2019-02-18T20:46:31.665Z,10.19
2019-02-18T20:48:59.087Z,10.23
2019-02-18T20:51:26.482Z,10.25
2019-02-18T20:53:54.270Z,10.32
2019-02-18T20:56:21.735Z,10.32
2019-02-18T20:58:49.264Z,10.24
2019-02-18T21:01:16.675Z,10.14
2019-02-18T21:03:44.082Z,10.13
2019-02-18T21:06:11.551Z,10.09
2019-02-18T21:08:38.989Z,10.13
2019-02-18T21:11:06.412Z,10.25
2019-02-18T21:13:33.909Z,10.33
2019-02-18T21:16:01.343Z,10.36
2019-02-18T21:18:29.561Z,10.31
2019-02-18T21:20:57.041Z,10.41
2019-02-18T21:23:24.489Z,10.43
2019-02-18T21:25:51.924Z,10.39
2019-02-18T21:28:19.355Z,10.22
2019-02-18T21:30:46.791Z,10.16
2019-02-18T21:33:14.304Z,10.17
2019-02-18T21:35:41.740Z,10.16
2019-02-18T21:38:09.165Z,10.13
2019-02-18T21:40:36.577Z,10.09
2019-02-18T21:43:04.225Z,10.04
2019-02-18T21:45:31.640Z,10.02
2019-02-18T21:47:59.054Z,9.98
2019-02-18T21:50:26.503Z,9.97
2019-02-18T21:52:53.894Z,9.94
2019-02-18T21:55:21.295Z,9.83
2019-02-18T21:57:48.874Z,9.84
2019-02-18T22:00:18.771Z,9.81
2019-02-18T22:02:46.333Z,9.72
2019-02-18T22:05:13.759Z,9.67
2019-02-18T22:07:41.885Z,9.67
2019-02-18T22:10:09.274Z,9.56
2019-02-18T22:12:36.744Z,9.47
2019-02-18T22:15:04.346Z,9.45
2019-02-18T22:17:32.490Z,9.46
2019-02-18T22:19:59.941Z,9.53
2019-02-18T22:22:27.336Z,9.68
2019-02-18T22:24:54.742Z,9.78
2019-02-18T22:27:22.252Z,9.83
2019-02-18T22:29:49.666Z,9.88
2019-02-18T22:32:17.101Z,9.96
2019-02-18T22:34:44.624Z,9.90
2019-02-18T22:37:12.015Z,9.76
2019-02-18T22:39:39.420Z,9.81
2019-02-18T22:42:07.181Z,9.76
2019-02-18T22:44:41.777Z,9.66
2019-02-18T22:47:02.321Z,9.53
2019-02-18T22:49:29.815Z,9.51
2019-02-18T22:51:57.211Z,9.55
2019-02-18T22:54:24.858Z,9.57
2019-02-18T22:56:52.262Z,9.60
2019-02-18T22:59:19.707Z,9.66
2019-02-18T23:01:47.173Z,9.75
2019-02-18T23:04:14.561Z,9.79
2019-02-18T23:06:41.953Z,9.87
2019-02-18T23:09:09.350Z,9.91
2019-02-18T23:11:36.950Z,9.90
2019-02-18T23:14:04.333Z,9.83
2019-02-18T23:16:31.742Z,9.81
2019-02-18T23:18:59.147Z,9.76
2019-02-18T23:21:26.655Z,9.65
2019-02-18T23:23:54.051Z,9.53
2019-02-18T23:26:21.502Z,9.51
2019-02-18T23:28:48.916Z,9.52
2019-02-18T23:31:16.447Z,9.46
2019-02-18T23:33:43.864Z,9.48
2019-02-18T23:36:11.262Z,9.47
2019-02-18T23:38:38.658Z,9.48
2019-02-18T23:41:06.282Z,9.56
2019-02-18T23:43:33.689Z,9.60
2019-02-18T23:46:01.132Z,9.48
2019-02-18T23:48:28.543Z,9.48
2019-02-18T23:50:56.211Z,9.55
2019-02-18T23:53:23.855Z,9.51
2019-02-18T23:55:51.351Z,9.44
2019-02-18T23:58:18.763Z,9.34
